Capitol Logistics 305


KSEA
Seattle-Tacoma International Airport
Seattle, Washington, US
KRFD
Chicago/Rockford International Airport
Rockford, Illinois, US

Activity Log

Date Flight Route Aircraft Duration
11/26/2019 CPX419 NORMY J12 EPH HLN DPR J16 FSD DBQ B738 3h 45m
07/01/2019 CPX419 NORMY J12 EPH HLN DPR J16 FSD DBQ B752 3h 23m
06/26/2019 CPX305 NORMY J12 EPH HLN DPR J16 FSD DBQ B763 3h 20m
01/22/2019 CPX419 NORMY J12 EPH HLN DPR J16 FSD DBQ B752 3h 08m

Route Details

Aircraft Information
Primary: Boeing 767-300BDSF
Backup: Not Available
Route Data
Distance: 1662nm
Sched. Duration: 4h 29m
Avg. Duration: 3h 24m (-106m)
Times Flown: 4
Recm'd Route: NORMY J12 EPH HLN DPR J16 FSD DBQ
Planned Altitude: 35,000ft
Origin Wx: KSEA 271053Z 15005KT 10SM FEW090 BKN140 06/02 A3047 RMK AO2 SLP326 T00560022
Dest. Wx: KRFD 271054Z 28007KT 10SM FEW180 M07/M11 A3008 RMK AO2 SLP197 T10671106
Notes:

Financial History
Total Freight: 274,386lbs
Average Load: 68,597lbs/flt
Fuel Used: 107,062lbs
Avg. Fuel Used: 26,766lbs/flt
Fuel Expense: $119,909
Avg. Fuel Expense: $29,977
Avg. Fuel Cost: $1.12/lbs
Total Gross Income: $362,948
Pilot Pay: $766
Total Expenses: $39,406
Total Revenue: $200,916
Average Revenue: $90,737.01